Time;durP1;ratioP1;P1;durP2;ratioP2;P2;SDS_P1;SDS_P2;PMS_P1;PMS_P2;Temp;Humidity;BMP_temperature;BMP_pressure;BME280_temperature;BME280_humidity;BME280_pressure;Samples;Min_cycle;Max_cycle;Signal;HPM_P1;HPM_P2
2022/01/27 00:03:16;;;;;;;37.85;22.95;;;;;;;-146.48;100.00;31749.47;5281111;28;20075;-68
2022/01/27 00:05:54;;;;;;;42.13;22.38;;;;;;;-146.48;100.00;31789.25;5282230;28;20099;-68
2022/01/27 00:08:35;;;;;;;37.17;22.48;;;;;;;-146.48;100.00;31797.19;5282040;28;20088;-68
2022/01/27 00:11:15;;;;;;;37.90;22.48;;;;;;;-146.48;100.00;31739.50;5280708;28;20107;-68
2022/01/27 00:13:49;;;;;;;37.75;22.38;;;;;;;-146.48;100.00;31715.63;5282559;28;20150;-68
2022/01/27 00:16:24;;;;;;;36.03;22.48;;;;;;;-146.48;100.00;31701.72;5281105;28;20039;-68
2022/01/27 00:18:57;;;;;;;36.65;22.05;;;;;;;-146.48;100.00;31685.81;5282222;28;20021;-68
2022/01/27 00:21:30;;;;;;;34.63;22.33;;;;;;;-146.48;100.00;31781.28;5282414;28;20040;-68
2022/01/27 00:24:03;;;;;;;34.65;21.58;;;;;;;-146.48;100.00;31787.25;5280969;28;20028;-68
2022/01/27 00:26:34;;;;;;;35.65;21.58;;;;;;;-146.48;100.00;31858.88;5282243;28;20117;-68
2022/01/27 00:29:05;;;;;;;35.08;20.55;;;;;;;-146.48;100.00;31884.72;5281510;28;20048;-68
2022/01/27 00:31:37;;;;;;;35.75;21.20;;;;;;;-146.48;100.00;31870.81;5281662;28;20472;-68
2022/01/27 00:34:08;;;;;;;35.25;21.35;;;;;;;-146.48;100.00;31874.78;5281558;28;20163;-68
2022/01/27 00:36:39;;;;;;;33.58;21.70;;;;;;;-146.48;100.00;31860.88;5282292;28;20028;-68
2022/01/27 00:39:10;;;;;;;36.65;21.73;;;;;;;-146.48;100.00;31852.91;5280745;28;20029;-68
2022/01/27 00:41:42;;;;;;;34.42;21.85;;;;;;;-146.48;100.00;31858.88;5282332;28;20024;-68
2022/01/27 00:44:14;;;;;;;34.97;20.92;;;;;;;-146.48;100.00;31908.59;5280486;28;20041;-69
2022/01/27 00:46:46;;;;;;;33.65;19.00;;;;;;;-146.48;100.00;31936.47;5282252;28;20052;-68
2022/01/27 00:49:17;;;;;;;37.80;22.08;;;;;;;-146.48;100.00;31856.88;5281294;28;20044;-68
2022/01/27 00:51:48;;;;;;;36.08;22.42;;;;;;;-146.48;100.00;31773.34;5280963;28;20020;-67
2022/01/27 00:54:23;;;;;;;38.55;23.63;;;;;;;-146.48;100.00;31721.59;5281405;28;20028;-67
2022/01/27 00:57:14;;;;;;;39.55;21.85;;;;;;;-146.48;100.00;31693.75;5281424;28;20118;-67
2022/01/27 01:05:08;;;;;;;33.42;21.52;;;;;;;-146.48;100.00;31447.09;5281675;28;20037;-68
2022/01/27 01:07:43;;;;;;;31.83;20.45;;;;;;;-146.48;100.00;31411.28;5281313;28;20044;-67
2022/01/27 01:15:33;;;;;;;38.20;22.48;;;;;;;-146.48;100.00;31363.56;5282106;28;20037;-67
2022/01/27 01:31:53;;;;;;;30.83;18.40;;;;;;;-146.48;100.00;31180.56;5285635;28;20024;-67
2022/01/27 01:34:27;;;;;;;27.95;15.82;;;;;;;-146.48;100.00;31236.25;5284556;28;20033;-68
2022/01/27 01:37:03;;;;;;;34.15;20.65;;;;;;;-146.48;100.00;31180.56;5284893;28;20059;-67
2022/01/27 01:39:35;;;;;;;31.15;19.83;;;;;;;-146.48;100.00;31178.56;5285279;28;20028;-67
2022/01/27 01:42:10;;;;;;;31.38;19.23;;;;;;;-146.48;100.00;31069.19;5283889;28;20525;-67
2022/01/27 01:44:43;;;;;;;31.23;20.10;;;;;;;-146.48;100.00;31210.41;5285427;28;20474;-67
2022/01/27 01:47:15;;;;;;;32.08;18.73;;;;;;;-146.48;100.00;31152.72;5284760;28;20021;-68
2022/01/27 01:49:47;;;;;;;31.65;18.73;;;;;;;-146.48;100.00;31097.03;5284456;28;20021;-67
2022/01/27 01:52:18;;;;;;;32.08;21.00;;;;;;;-146.48;100.00;31025.41;5284579;28;20388;-67
2022/01/27 01:54:49;;;;;;;33.20;19.92;;;;;;;-146.48;100.00;31077.13;5284511;28;20093;-67
2022/01/27 01:57:21;;;;;;;33.45;20.98;;;;;;;-146.48;100.00;31083.09;5284487;28;20073;-67
2022/01/27 01:59:53;;;;;;;31.13;19.17;;;;;;;-146.48;100.00;31226.31;5285012;28;20033;-67
2022/01/27 02:02:24;;;;;;;29.23;19.95;;;;;;;-146.48;100.00;31244.22;5284001;28;20035;-67
2022/01/27 02:04:55;;;;;;;33.20;21.05;;;;;;;-146.48;100.00;31192.50;5284470;28;20029;-67
2022/01/27 02:07:37;;;;;;;36.17;21.20;;;;;;;-146.48;100.00;31154.69;5284446;28;20124;-67
2022/01/27 02:10:27;;;;;;;32.80;20.15;;;;;;;-146.48;100.00;31148.72;5283324;28;20029;-67
2022/01/27 02:18:39;;;;;;;28.10;18.58;;;;;;;-146.48;100.00;31174.59;5284940;28;20079;-67
2022/01/27 02:21:11;;;;;;;29.83;17.20;;;;;;;-146.48;100.00;31176.59;5284103;28;20108;-67
2022/01/27 02:23:42;;;;;;;32.78;19.33;;;;;;;-146.48;100.00;31164.66;5283545;28;20119;-67
2022/01/27 02:26:13;;;;;;;30.75;19.10;;;;;;;-146.48;100.00;31126.84;5284023;28;20024;-68
2022/01/27 02:28:45;;;;;;;30.55;20.00;;;;;;;-146.48;100.00;31128.84;5284507;28;20027;-68
2022/01/27 02:31:16;;;;;;;30.13;18.08;;;;;;;-146.48;100.00;31190.50;5283626;28;20085;-68
2022/01/27 02:33:55;;;;;;;34.42;20.38;;;;;;;-146.48;100.00;31150.72;5284003;28;20021;-68
2022/01/27 02:36:27;;;;;;;31.20;18.08;;;;;;;-146.48;100.00;31210.41;5284250;28;20479;-67
2022/01/27 02:38:59;;;;;;;28.27;18.38;;;;;;;-146.48;100.00;31085.09;5283074;28;20113;-68
2022/01/27 02:41:36;;;;;;;29.90;17.85;;;;;;;-146.48;100.00;31136.81;5284298;28;20039;-68
2022/01/27 02:44:08;;;;;;;30.38;18.92;;;;;;;-146.48;100.00;31091.06;5282879;28;20472;-68
2022/01/27 02:46:44;;;;;;;32.45;19.05;;;;;;;-146.48;100.00;31234.25;5284154;28;20077;-67
2022/01/27 02:49:15;;;;;;;27.75;18.17;;;;;;;-146.48;100.00;31309.84;5283776;28;20036;-67
2022/01/27 02:51:47;;;;;;;28.52;18.70;;;;;;;-146.48;100.00;31359.56;5283479;28;20464;-67
2022/01/27 02:54:19;;;;;;;32.05;19.38;;;;;;;-146.48;100.00;31401.34;5283569;28;20028;-67
2022/01/27 02:56:50;;;;;;;29.77;17.80;;;;;;;-146.48;100.00;31311.84;5283994;28;20020;-68
2022/01/27 02:59:21;;;;;;;26.88;15.80;;;;;;;-146.48;100.00;31369.53;5282756;28;20077;-67
2022/01/27 03:01:53;;;;;;;29.65;17.17;;;;;;;-146.48;100.00;31317.81;5283848;28;20036;-67
2022/01/27 03:04:25;;;;;;;28.98;17.35;;;;;;;-146.48;100.00;31295.91;5283657;28;20032;-67
2022/01/27 03:06:57;;;;;;;28.73;17.95;;;;;;;-146.48;100.00;31353.59;5282276;28;20045;-68
2022/01/27 03:09:28;;;;;;;29.92;15.43;;;;;;;-146.48;100.00;31291.94;5283784;28;20040;-67
2022/01/27 03:12:02;;;;;;;31.60;17.92;;;;;;;-146.48;100.00;31148.72;5282317;28;20056;-67
2022/01/27 03:14:35;;;;;;;29.88;18.40;;;;;;;-146.48;100.00;31154.69;5283658;28;20445;-67
2022/01/27 03:17:08;;;;;;;30.08;16.75;;;;;;;-146.48;100.00;31250.19;5283121;28;20108;-67
2022/01/27 03:19:39;;;;;;;28.48;18.70;;;;;;;-146.48;100.00;31284.00;5282656;28;20112;-67
2022/01/27 03:22:11;;;;;;;31.02;18.45;;;;;;;-146.48;100.00;31375.50;5283019;28;20537;-67
2022/01/27 03:24:42;;;;;;;29.70;18.20;;;;;;;-146.48;100.00;31365.53;5283314;28;20035;-67
2022/01/27 03:27:19;;;;;;;26.33;17.02;;;;;;;-146.48;100.00;31345.66;5282018;28;20090;-67
2022/01/27 03:29:50;;;;;;;29.52;16.67;;;;;;;-146.48;100.00;31353.59;5283783;28;20444;-68
2022/01/27 03:32:21;;;;;;;33.25;18.58;;;;;;;-146.48;100.00;31395.38;5282636;28;20040;-67
2022/01/27 03:34:54;;;;;;;29.17;17.67;;;;;;;-146.48;100.00;31417.25;5282359;28;20032;-68
2022/01/27 03:37:25;;;;;;;28.25;16.13;;;;;;;-146.48;100.00;31453.06;5282990;28;20387;-67
2022/01/27 03:39:56;;;;;;;29.70;17.70;;;;;;;-146.48;100.00;31536.59;5281781;28;20032;-67
2022/01/27 03:42:28;;;;;;;32.03;18.52;;;;;;;-146.48;100.00;31586.34;5283002;28;20028;-68
2022/01/27 03:45:00;;;;;;;28.65;17.10;;;;;;;-146.48;100.00;31701.72;5281526;28;20029;-66
2022/01/27 03:47:31;;;;;;;32.58;17.25;;;;;;;-146.48;100.00;31819.09;5282125;28;20104;-68
2022/01/27 03:50:03;;;;;;;31.88;17.77;;;;;;;-146.48;100.00;31968.28;5282287;28;20471;-68
2022/01/27 03:52:34;;;;;;;31.38;17.70;;;;;;;-146.48;100.00;32113.53;5282714;28;20028;-68
2022/01/27 03:55:06;;;;;;;29.67;17.95;;;;;;;-146.48;100.00;32215.00;5281078;28;20386;-68
2022/01/27 03:57:37;;;;;;;32.72;18.65;;;;;;;-146.48;100.00;32316.47;5282731;28;20401;-68
2022/01/27 04:00:09;;;;;;;29.98;16.88;;;;;;;-146.48;100.00;32322.44;5282093;28;20040;-68
2022/01/27 04:02:52;;;;;;;24.77;14.55;;;;;;;-146.48;100.00;32268.69;5282000;28;20017;-68
2022/01/27 04:05:24;;;;;;;29.30;17.60;;;;;;;-146.48;100.00;32189.13;5282329;28;20032;-68
2022/01/27 04:07:57;;;;;;;30.60;16.48;;;;;;;-146.48;100.00;32203.06;5282156;28;20044;-68
2022/01/27 04:10:28;;;;;;;32.28;16.45;;;;;;;-146.48;100.00;32175.19;5281586;28;20025;-67
2022/01/27 04:13:01;;;;;;;29.98;16.98;;;;;;;-146.48;100.00;32189.13;5281919;28;20369;-67
2022/01/27 04:15:36;;;;;;;29.30;17.05;;;;;;;-146.48;100.00;32201.06;5281445;28;20032;-66
2022/01/27 04:18:08;;;;;;;32.58;18.70;;;;;;;-146.48;100.00;32216.97;5281766;28;20478;-67
2022/01/27 04:20:40;;;;;;;31.10;16.23;;;;;;;-146.48;100.00;32256.78;5282602;28;20115;-67
2022/01/27 04:23:12;;;;;;;33.13;17.52;;;;;;;-146.48;100.00;32230.91;5281132;28;20883;-67
2022/01/27 04:25:43;;;;;;;31.10;17.83;;;;;;;-146.48;100.00;32310.50;5282342;28;20024;-67
2022/01/27 04:28:21;;;;;;;29.98;17.27;;;;;;;-146.48;100.00;32469.66;5281674;28;20029;-67
2022/01/27 04:30:55;;;;;;;30.15;16.27;;;;;;;-146.48;100.00;32419.91;5281148;28;20024;-67
2022/01/27 04:33:29;;;;;;;32.42;17.20;;;;;;;-146.48;100.00;32481.59;5282110;28;20105;-67
2022/01/27 04:36:06;;;;;;;22.95;12.48;;;;;;;-146.48;100.00;32491.53;5281681;28;20028;-67
2022/01/27 04:38:51;;;;;;;30.40;16.58;;;;;;;-146.48;100.00;32583.06;5281340;28;20423;-67
2022/01/27 04:41:35;;;;;;;31.40;17.45;;;;;;;-146.48;100.00;32608.94;5281657;28;20170;-67
2022/01/27 04:46:47;;;;;;;26.08;15.38;;;;;;;-146.48;100.00;32718.38;5282182;28;20032;-67
2022/01/27 04:49:18;;;;;;;31.45;16.88;;;;;;;-146.48;100.00;32786.03;5281568;28;20388;-66
2022/01/27 04:51:49;;;;;;;29.35;16.95;;;;;;;-146.48;100.00;32881.53;5281337;28;20020;-67
2022/01/27 04:54:27;;;;;;;30.63;16.60;;;;;;;-146.48;100.00;33046.72;5281332;28;20016;-67
2022/01/27 04:57:01;;;;;;;27.58;15.27;;;;;;;-146.48;100.00;33102.44;5284573;28;20025;-67
2022/01/27 04:59:38;;;;;;;29.20;15.80;;;;;;;-146.48;100.00;33267.59;5285550;28;20021;-67
2022/01/27 05:02:17;;;;;;;28.15;16.35;;;;;;;-146.48;100.00;33327.31;5285895;28;20051;-67
2022/01/27 05:04:50;;;;;;;32.92;17.50;;;;;;;-146.48;100.00;33383.03;5285656;28;20523;-67
2022/01/27 05:07:22;;;;;;;26.73;13.82;;;;;;;-146.48;100.00;33402.94;5285391;28;20047;-67
2022/01/27 05:09:58;;;;;;;28.48;15.60;;;;;;;-146.48;100.00;33444.72;5285722;28;20021;-68
2022/01/27 05:12:38;;;;;;;31.27;16.33;;;;;;;-146.48;100.00;33520.34;5285442;28;20036;-67
2022/01/27 05:15:09;;;;;;;29.40;16.23;;;;;;;-146.48;100.00;33570.09;5285521;28;20087;-67
2022/01/27 05:17:41;;;;;;;30.95;17.60;;;;;;;-146.48;100.00;33588.00;5285957;28;20074;-67
2022/01/27 05:20:12;;;;;;;29.48;17.23;;;;;;;-146.48;100.00;33486.50;5284986;28;20060;-68
2022/01/27 05:22:44;;;;;;;32.17;17.55;;;;;;;-146.48;100.00;33566.13;5285728;28;20111;-67
2022/01/27 05:25:15;;;;;;;31.55;16.40;;;;;;;-146.48;100.00;33550.19;5285241;28;20516;-67
2022/01/27 05:27:46;;;;;;;29.80;16.45;;;;;;;-146.48;100.00;33594.00;5284872;28;20028;-67
2022/01/27 05:30:18;;;;;;;31.80;17.55;;;;;;;-146.48;100.00;33592.00;5285124;28;20058;-67
2022/01/27 05:32:49;;;;;;;31.52;15.27;;;;;;;-146.48;100.00;33592.00;5284841;28;20044;-68
2022/01/27 05:35:20;;;;;;;28.95;16.05;;;;;;;-146.48;100.00;33582.03;5284897;28;20119;-67
2022/01/27 05:37:51;;;;;;;28.70;15.50;;;;;;;-146.48;100.00;33605.94;5285769;28;20028;-67
2022/01/27 05:40:23;;;;;;;34.05;18.08;;;;;;;-146.48;100.00;33592.00;5284285;28;20040;-67
2022/01/27 05:42:54;;;;;;;29.30;16.05;;;;;;;-146.48;100.00;33641.75;5285005;28;20032;-67
2022/01/27 05:45:25;;;;;;;33.38;17.45;;;;;;;-146.48;100.00;33574.09;5285015;28;20025;-67
2022/01/27 05:47:57;;;;;;;31.10;15.70;;;;;;;-146.48;100.00;33609.91;5283899;28;20055;-67
2022/01/27 05:50:28;;;;;;;28.70;17.60;;;;;;;-146.48;100.00;33629.81;5285278;28;20029;-67
2022/01/27 05:52:59;;;;;;;25.75;13.98;;;;;;;-146.48;100.00;33655.69;5284770;28;20056;-68
2022/01/27 05:55:30;;;;;;;29.30;15.90;;;;;;;-146.48;100.00;33595.97;5284168;28;20031;-67
2022/01/27 05:58:02;;;;;;;35.80;16.67;;;;;;;-146.48;100.00;33588.00;5284392;28;20434;-67
2022/01/27 06:00:33;;;;;;;31.17;15.73;;;;;;;-146.48;100.00;33584.03;5284933;28;20063;-67
2022/01/27 06:03:04;;;;;;;29.85;15.73;;;;;;;-146.48;100.00;33603.94;5283797;28;20025;-67
2022/01/27 06:05:36;;;;;;;30.02;16.70;;;;;;;-146.48;100.00;33594.00;5285139;28;20025;-67
2022/01/27 06:08:07;;;;;;;31.83;16.25;;;;;;;-146.48;100.00;33574.09;5282718;28;20036;-68
2022/01/27 06:10:38;;;;;;;31.70;16.95;;;;;;;-146.48;100.00;33566.13;5284637;28;20032;-67
2022/01/27 06:13:09;;;;;;;30.00;16.13;;;;;;;-146.48;100.00;33496.47;5284404;28;20031;-68
2022/01/27 06:15:41;;;;;;;26.70;16.48;;;;;;;-146.48;100.00;33530.31;5283909;28;20027;-67
2022/01/27 06:18:12;;;;;;;31.27;15.40;;;;;;;-146.48;100.00;33500.44;5284229;28;20098;-67
2022/01/27 06:20:45;;;;;;;25.58;12.90;;;;;;;-146.48;100.00;33456.66;5284608;28;20025;-67
2022/01/27 06:23:16;;;;;;;29.30;16.02;;;;;;;-146.48;100.00;33514.38;5283033;28;20474;-67
2022/01/27 06:25:47;;;;;;;29.80;15.38;;;;;;;-146.48;100.00;33592.00;5284730;28;20039;-67
2022/01/27 06:28:19;;;;;;;29.17;16.83;;;;;;;-146.48;100.00;33671.59;5283964;28;20031;-67
2022/01/27 06:30:50;;;;;;;36.03;17.67;;;;;;;-146.48;100.00;33647.72;5283812;28;20058;-67
2022/01/27 06:33:22;;;;;;;33.15;18.17;;;;;;;-146.48;100.00;33701.47;5283678;28;20028;-68
2022/01/27 06:35:53;;;;;;;33.55;18.27;;;;;;;-146.48;100.00;33773.13;5283438;28;20052;-67
2022/01/27 06:38:25;;;;;;;32.88;17.10;;;;;;;-146.48;100.00;33828.84;5284270;28;20107;-67
2022/01/27 06:40:56;;;;;;;31.20;17.83;;;;;;;-146.48;100.00;33799.00;5283967;28;20031;-67
2022/01/27 06:43:27;;;;;;;33.13;16.63;;;;;;;-146.48;100.00;33906.47;5283303;28;20033;-67
2022/01/27 06:45:58;;;;;;;30.63;18.13;;;;;;;-146.48;100.00;33918.41;5283448;28;20028;-67
2022/01/27 06:48:30;;;;;;;32.45;16.63;;;;;;;-146.48;100.00;33890.53;5284222;28;20028;-67
2022/01/27 06:51:04;;;;;;;32.67;15.80;;;;;;;-146.48;100.00;33970.16;5282892;28;20028;-67
2022/01/27 06:53:35;;;;;;;33.20;17.88;;;;;;;-146.48;100.00;33978.13;5284150;28;20036;-66
2022/01/27 06:56:07;;;;;;;39.92;19.17;;;;;;;-146.48;100.00;33948.25;5283267;28;20115;-67
2022/01/27 06:58:38;;;;;;;30.70;17.55;;;;;;;-146.48;100.00;34015.94;5283076;28;20485;-67
2022/01/27 07:01:09;;;;;;;33.83;18.08;;;;;;;-146.48;100.00;34097.56;5283408;28;20376;-67
2022/01/27 07:03:41;;;;;;;31.88;18.25;;;;;;;-146.48;100.00;34121.44;5283569;28;20042;-67
2022/01/27 07:06:13;;;;;;;34.72;18.83;;;;;;;-146.48;100.00;34143.34;5281995;28;20044;-66
2022/01/27 07:08:44;;;;;;;37.53;19.20;;;;;;;-146.48;100.00;34189.13;5283645;28;20062;-66
2022/01/27 07:11:15;;;;;;;34.42;18.20;;;;;;;-146.48;100.00;34187.13;5282102;28;20477;-66
2022/01/27 07:13:46;;;;;;;35.67;18.80;;;;;;;-146.48;100.00;34191.09;5283429;28;20028;-66
2022/01/27 07:16:18;;;;;;;33.92;18.00;;;;;;;-146.48;100.00;34189.13;5283013;28;20028;-67
2022/01/27 07:18:52;;;;;;;34.53;18.85;;;;;;;-146.48;100.00;34191.09;5281958;28;20099;-67
2022/01/27 07:21:23;;;;;;;34.50;19.00;;;;;;;-146.48;100.00;34165.22;5281048;28;20039;-67
2022/01/27 07:23:54;;;;;;;32.13;18.05;;;;;;;-146.48;100.00;34177.19;5282167;28;20028;-67
2022/01/27 07:26:26;;;;;;;35.33;19.70;;;;;;;-146.48;100.00;34185.13;5280964;28;20021;-67
2022/01/27 07:28:57;;;;;;;37.67;20.30;;;;;;;-146.48;100.00;34149.31;5281520;28;20440;-68
2022/01/27 07:31:28;;;;;;;38.20;19.85;;;;;;;-146.48;100.00;34216.97;5281829;28;20041;-67
2022/01/27 07:34:00;;;;;;;33.25;18.58;;;;;;;-146.48;100.00;34222.97;5279527;28;20040;-68
2022/01/27 07:36:31;;;;;;;33.95;18.75;;;;;;;-146.48;100.00;34256.78;5281516;28;20028;-68
2022/01/27 07:39:03;;;;;;;36.50;18.25;;;;;;;-146.48;100.00;34232.91;5280607;28;20025;-69
2022/01/27 07:41:34;;;;;;;38.05;19.15;;;;;;;-146.48;100.00;34167.22;5281656;28;20040;-68
2022/01/27 07:44:06;;;;;;;32.20;19.52;;;;;;;-146.48;100.00;34209.03;5280837;28;20037;-66
2022/01/27 07:46:37;;;;;;;36.13;19.33;;;;;;;-146.48;100.00;34209.03;5280303;28;20036;-70
2022/01/27 07:49:09;;;;;;;32.83;19.00;;;;;;;-146.48;100.00;34220.97;5280948;28;20032;-69
2022/01/27 07:51:40;;;;;;;33.72;17.80;;;;;;;-146.48;100.00;34256.78;5281494;28;20438;-67
2022/01/27 07:54:11;;;;;;;35.40;18.95;;;;;;;-146.48;100.00;34205.03;5279901;28;20438;-67
2022/01/27 07:56:43;;;;;;;35.38;19.13;;;;;;;-146.48;100.00;34296.59;5281177;28;20485;-67
2022/01/27 07:59:14;;;;;;;39.85;20.45;;;;;;;-146.48;100.00;34304.56;5280475;28;20123;-67
2022/01/27 08:01:46;;;;;;;36.83;20.52;;;;;;;-146.48;100.00;34394.16;5280087;28;20029;-67
2022/01/27 08:04:18;;;;;;;34.67;19.48;;;;;;;-146.48;100.00;34495.66;5280586;28;20099;-67
2022/01/27 08:06:49;;;;;;;35.45;20.63;;;;;;;-146.48;100.00;34593.22;5281121;28;20123;-68
2022/01/27 08:09:21;;;;;;;40.85;20.10;;;;;;;-146.48;100.00;34730.59;5279744;28;20032;-68
2022/01/27 08:11:52;;;;;;;41.03;20.63;;;;;;;-146.48;100.00;34768.41;5281148;28;20227;-68
2022/01/27 08:14:23;;;;;;;43.42;22.35;;;;;;;-146.48;100.00;34830.13;5279703;28;20089;-68
2022/01/27 08:16:55;;;;;;;40.33;20.92;;;;;;;-146.48;100.00;34935.66;5280785;28;20107;-67
2022/01/27 08:19:26;;;;;;;41.70;21.05;;;;;;;-146.48;100.00;35045.16;5280715;28;20079;-67
2022/01/27 08:21:57;;;;;;;36.58;19.10;;;;;;;-146.48;100.00;35130.75;5279608;28;20035;-68
2022/01/27 08:24:29;;;;;;;41.28;21.80;;;;;;;-146.48;100.00;35248.22;5281326;28;20468;-68
2022/01/27 08:27:04;;;;;;;46.70;23.10;;;;;;;-146.48;100.00;35294.03;5280145;28;20020;-67
2022/01/27 08:29:49;;;;;;;40.85;20.52;;;;;;;-146.48;100.00;35371.69;5279879;28;20111;-68
2022/01/27 08:32:32;;;;;;;45.22;22.42;;;;;;;-146.48;100.00;35248.22;5289926;28;20434;-69
2022/01/27 08:35:05;;;;;;;41.22;23.10;;;;;;;-146.48;100.00;35323.91;5300866;28;20032;-69
2022/01/27 08:37:36;;;;;;;45.22;22.38;;;;;;;-146.48;100.00;35443.38;5301028;28;20095;-69
2022/01/27 08:40:10;;;;;;;40.85;23.13;;;;;;;-146.48;100.00;35525.00;5301285;28;20104;-69
2022/01/27 08:42:43;;;;;;;39.40;21.55;;;;;;;-146.48;100.00;35562.84;5301101;28;20589;-66
2022/01/27 08:45:16;;;;;;;46.03;23.23;;;;;;;-146.48;100.00;35648.47;5300770;28;20026;-68
2022/01/27 08:47:47;;;;;;;46.25;24.33;;;;;;;-146.48;100.00;35765.94;5302005;28;20040;-70
2022/01/27 08:50:20;;;;;;;42.38;22.45;;;;;;;-146.48;100.00;35889.41;5300168;28;20035;-69
2022/01/27 08:52:52;;;;;;;40.60;21.13;;;;;;;-146.48;100.00;35919.28;5301783;28;20097;-69
2022/01/27 08:55:23;;;;;;;46.50;22.63;;;;;;;-146.48;100.00;36036.78;5301532;28;20082;-69
2022/01/27 08:57:55;;;;;;;45.53;23.13;;;;;;;-146.48;100.00;36110.47;5300291;28;20024;-69
2022/01/27 09:00:26;;;;;;;44.90;23.80;;;;;;;-146.48;100.00;36229.97;5301720;28;20020;-69
2022/01/27 09:02:58;;;;;;;44.60;23.13;;;;;;;-146.48;100.00;36247.88;5301119;28;20052;-68
2022/01/27 09:05:30;;;;;;;45.45;24.27;;;;;;;-146.48;100.00;36383.31;5300874;28;20425;-69
2022/01/27 09:08:02;;;;;;;45.83;21.60;;;;;;;-146.48;100.00;36486.88;5301050;28;20161;-69
2022/01/27 09:10:34;;;;;;;45.95;24.08;;;;;;;-146.48;100.00;36576.50;5300631;28;20039;-67
2022/01/27 09:13:05;;;;;;;44.33;23.48;;;;;;;-146.48;100.00;36745.81;5301011;28;20108;-68
2022/01/27 09:15:36;;;;;;;47.33;23.73;;;;;;;-146.48;100.00;36731.88;5301520;28;20471;-69
2022/01/27 09:18:07;;;;;;;41.58;22.65;;;;;;;-146.48;100.00;36823.50;5300339;28;20471;-68
2022/01/27 09:20:39;;;;;;;39.55;23.00;;;;;;;-146.48;100.00;36897.19;5301536;28;20028;-68
2022/01/27 09:23:14;;;;;;;39.63;23.65;;;;;;;-146.48;100.00;36958.94;5300348;28;20391;-69
2022/01/27 09:25:48;;;;;;;43.22;23.85;;;;;;;-146.48;100.00;36970.91;5300876;28;20125;-69
2022/01/27 09:28:19;;;;;;;39.97;23.08;;;;;;;-146.48;100.00;36952.97;5300797;28;20028;-69
2022/01/27 09:30:50;;;;;;;39.67;23.58;;;;;;;-146.48;100.00;37008.75;5301400;28;20464;-68
2022/01/27 09:33:22;;;;;;;42.42;23.75;;;;;;;-146.48;100.00;37034.66;5299918;28;20020;-68
2022/01/27 09:35:55;;;;;;;42.33;23.30;;;;;;;-146.48;100.00;37124.28;5300831;28;20067;-67
2022/01/27 09:38:26;;;;;;;38.08;21.40;;;;;;;-146.48;100.00;37315.53;5300739;28;20467;-68
2022/01/27 09:40:57;;;;;;;38.30;21.88;;;;;;;-146.48;100.00;37532.69;5300012;28;20029;-68
2022/01/27 09:43:29;;;;;;;38.15;22.80;;;;;;;-146.48;100.00;37959.03;5303677;28;20059;-67
2022/01/27 09:46:04;;;;;;;38.13;22.67;;;;;;;-146.48;100.00;38020.81;5304018;28;20036;-67
2022/01/27 09:48:40;;;;;;;34.55;21.92;;;;;;;-146.48;100.00;38108.47;5305187;28;20112;-68
2022/01/27 09:53:56;;;;;;;34.80;19.83;;;;;;;-146.48;100.00;38351.56;5304640;28;20040;-68
2022/01/27 09:56:28;;;;;;;31.40;22.10;;;;;;;-146.48;100.00;38395.41;5305222;28;20493;-67
2022/01/27 09:58:59;;;;;;;35.90;21.95;;;;;;;-146.48;100.00;38275.84;5303140;28;20032;-68
2022/01/27 10:01:30;;;;;;;38.83;21.80;;;;;;;-146.48;100.00;38202.13;5304197;28;20035;-67
2022/01/27 10:04:06;;;;;;;29.92;18.77;;;;;;;-146.48;100.00;38150.31;5303822;28;20042;-67
2022/01/27 10:06:44;;;;;;;35.17;21.33;;;;;;;-146.48;100.00;38154.31;5304811;28;20395;-67
2022/01/27 10:09:20;;;;;;;32.88;21.58;;;;;;;-146.48;100.00;38000.88;5303740;28;20036;-67
2022/01/27 10:11:52;;;;;;;31.63;21.15;;;;;;;-146.48;100.00;38080.59;5304753;28;20153;-67
2022/01/27 10:14:37;;;;;;;30.52;20.15;;;;;;;-146.48;100.00;38128.41;5303532;28;20042;-67
2022/01/27 10:17:14;;;;;;;30.25;21.20;;;;;;;-146.48;100.00;38166.25;5289990;28;20020;-69
2022/01/27 10:19:52;;;;;;;33.28;20.27;;;;;;;-146.48;100.00;38214.09;5284848;28;20103;-69
2022/01/27 10:22:24;;;;;;;27.20;17.70;;;;;;;-146.48;100.00;38236.00;5283431;28;20028;-69
2022/01/27 10:25:00;;;;;;;31.05;20.10;;;;;;;-146.48;100.00;38323.69;5284094;28;20035;-68
2022/01/27 10:27:44;;;;;;;28.40;19.27;;;;;;;-146.48;100.00;38463.16;5284601;28;20069;-69
2022/01/27 10:32:59;;;;;;;27.88;19.40;;;;;;;-146.48;100.00;38489.06;5283962;28;20040;-67
2022/01/27 10:35:31;;;;;;;26.95;17.90;;;;;;;-146.48;100.00;38542.88;5282552;28;20036;-67
2022/01/27 10:38:06;;;;;;;25.63;17.25;;;;;;;-146.48;100.00;38505.00;5283939;28;20095;-67
2022/01/27 10:40:43;;;;;;;28.20;19.02;;;;;;;-146.48;100.00;38662.44;5284220;28;20105;-67
2022/01/27 10:43:17;;;;;;;25.35;19.05;;;;;;;-146.48;100.00;38610.63;5282754;28;20488;-68
2022/01/27 10:46:26;;;;;;;27.77;19.55;;;;;;;-146.48;100.00;38698.31;5284055;28;20021;-69
2022/01/27 10:49:05;;;;;;;;;;;;;;;-146.48;100.00;38750.13;5283039;28;20393;-67
2022/01/27 10:51:43;;;;;;;25.85;17.67;;;;;;;-146.48;100.00;38650.50;5284013;28;19919;-68
2022/01/27 10:56:49;;;;;;;24.33;17.88;;;;;;;-146.48;100.00;38754.13;5283516;28;20037;-67
2022/01/27 10:59:20;;;;;;;27.05;18.90;;;;;;;-146.48;100.00;38805.94;5283064;28;20502;-67
2022/01/27 11:01:52;;;;;;;25.38;19.33;;;;;;;-146.48;100.00;38861.72;5283802;28;20016;-67
2022/01/27 11:04:33;;;;;;;27.08;19.63;;;;;;;-146.48;100.00;38933.47;5282497;28;20028;-67
2022/01/27 11:07:11;;;;;;;23.90;17.25;;;;;;;-146.48;100.00;39059.03;5283096;28;20377;-67
2022/01/27 11:09:44;;;;;;;26.25;19.25;;;;;;;-146.48;100.00;39122.81;5283611;28;20077;-67
2022/01/27 11:12:18;;;;;;;26.95;19.65;;;;;;;-146.48;100.00;39260.34;5281190;28;20103;-67
2022/01/27 11:14:51;;;;;;;23.13;17.52;;;;;;;-146.48;100.00;39268.31;5283365;28;20059;-67
2022/01/27 11:17:28;;;;;;;24.58;18.80;;;;;;;-146.48;100.00;39296.22;5282360;28;20060;-67
2022/01/27 11:20:20;;;;;;;25.88;19.17;;;;;;;-146.48;100.00;39381.91;5282837;28;20032;-67
2022/01/27 11:28:03;;;;;;;24.10;17.90;;;;;;;-146.48;100.00;39475.59;5282737;28;20492;-69
2022/01/27 11:31:07;;;;;;;27.15;17.58;;;;;;;-146.48;100.00;39575.25;5283180;28;20047;-69
2022/01/27 11:33:43;;;;;;;23.75;17.20;;;;;;;-146.48;100.00;39593.19;5282511;28;20044;-68
2022/01/27 11:36:19;;;;;;;27.20;17.98;;;;;;;-146.48;100.00;39625.09;5282433;28;20029;-69
2022/01/27 11:38:50;;;;;;;28.42;19.90;;;;;;;-146.48;100.00;39611.13;5282567;28;20392;-69
2022/01/27 11:41:47;;;;;;;29.38;17.67;;;;;;;-146.48;100.00;39637.06;5282432;28;20032;-69
2022/01/27 11:44:28;;;;;;;27.23;17.95;;;;;;;-146.48;100.00;39601.19;5282483;28;20089;-69
2022/01/27 11:47:10;;;;;;;29.88;18.08;;;;;;;-146.48;100.00;39674.94;5281615;28;20456;-68
2022/01/27 11:50:06;;;;;;;26.90;17.65;;;;;;;-146.48;100.00;39768.63;5282828;28;20064;-68
2022/01/27 11:52:50;;;;;;;29.10;17.73;;;;;;;-146.48;100.00;39748.69;5282221;28;20468;-68
2022/01/27 11:55:25;;;;;;;26.77;17.75;;;;;;;-146.48;100.00;39800.50;5282218;28;20025;-69
2022/01/27 11:57:58;;;;;;;27.38;18.00;;;;;;;-146.48;100.00;39778.59;5282275;28;20059;-69
2022/01/27 12:00:30;;;;;;;27.33;17.33;;;;;;;-146.48;100.00;39836.38;5281819;28;20028;-68
2022/01/27 12:03:01;;;;;;;27.65;17.23;;;;;;;-146.48;100.00;39852.34;5282075;28;20456;-68
2022/01/27 12:05:41;;;;;;;23.85;15.90;;;;;;;-146.48;100.00;39906.16;5281766;28;20046;-67
2022/01/27 12:08:12;;;;;;;26.85;16.02;;;;;;;-146.48;100.00;39946.03;5281096;28;20036;-67
2022/01/27 12:10:51;;;;;;;21.77;14.95;;;;;;;-146.48;100.00;40005.84;5282339;28;20418;-67